sensor_id;sensor_type;location;lat;lon;timestamp;P1;durP1;ratioP1;P2;durP2;ratioP2
4385;SDS011;2207;53.540;10.042;2024-02-26T00:02:05;21.53;;;14.57;;
4385;SDS011;2207;53.540;10.042;2024-02-26T00:04:34;24.63;;;14.70;;
4385;SDS011;2207;53.540;10.042;2024-02-26T00:07:01;25.47;;;15.70;;
4385;SDS011;2207;53.540;10.042;2024-02-26T00:09:28;29.90;;;16.53;;
4385;SDS011;2207;53.540;10.042;2024-02-26T00:11:55;59.67;;;24.60;;
4385;SDS011;2207;53.540;10.042;2024-02-26T00:14:22;69.17;;;27.47;;
4385;SDS011;2207;53.540;10.042;2024-02-26T00:16:49;107.37;;;39.23;;
4385;SDS011;2207;53.540;10.042;2024-02-26T00:19:16;141.17;;;41.53;;
4385;SDS011;2207;53.540;10.042;2024-02-26T00:21:45;153.90;;;46.70;;
4385;SDS011;2207;53.540;10.042;2024-02-26T00:24:12;133.83;;;41.60;;
4385;SDS011;2207;53.540;10.042;2024-02-26T00:26:38;101.80;;;36.03;;
4385;SDS011;2207;53.540;10.042;2024-02-26T00:29:05;101.23;;;33.23;;
4385;SDS011;2207;53.540;10.042;2024-02-26T00:31:32;86.13;;;31.50;;
4385;SDS011;2207;53.540;10.042;2024-02-26T00:34:00;107.17;;;35.40;;
4385;SDS011;2207;53.540;10.042;2024-02-26T00:36:27;90.73;;;33.93;;
4385;SDS011;2207;53.540;10.042;2024-02-26T00:38:55;75.50;;;29.17;;
4385;SDS011;2207;53.540;10.042;2024-02-26T00:41:22;44.40;;;19.13;;
4385;SDS011;2207;53.540;10.042;2024-02-26T00:43:49;66.67;;;25.70;;
4385;SDS011;2207;53.540;10.042;2024-02-26T00:46:16;48.73;;;22.70;;
4385;SDS011;2207;53.540;10.042;2024-02-26T00:48:43;73.97;;;30.27;;
4385;SDS011;2207;53.540;10.042;2024-02-26T00:51:10;72.80;;;28.40;;
4385;SDS011;2207;53.540;10.042;2024-02-26T00:53:36;72.13;;;29.53;;
4385;SDS011;2207;53.540;10.042;2024-02-26T00:56:05;68.80;;;28.57;;
4385;SDS011;2207;53.540;10.042;2024-02-26T00:58:32;87.03;;;30.27;;
4385;SDS011;2207;53.540;10.042;2024-02-26T01:00:59;83.53;;;31.00;;
4385;SDS011;2207;53.540;10.042;2024-02-26T01:03:25;78.70;;;32.23;;
4385;SDS011;2207;53.540;10.042;2024-02-26T01:05:52;78.33;;;30.50;;
4385;SDS011;2207;53.540;10.042;2024-02-26T01:08:19;89.97;;;30.70;;
4385;SDS011;2207;53.540;10.042;2024-02-26T01:10:46;97.73;;;31.83;;
4385;SDS011;2207;53.540;10.042;2024-02-26T01:13:14;85.17;;;31.17;;
4385;SDS011;2207;53.540;10.042;2024-02-26T01:15:41;74.50;;;31.87;;
4385;SDS011;2207;53.540;10.042;2024-02-26T01:18:08;84.37;;;30.40;;
4385;SDS011;2207;53.540;10.042;2024-02-26T01:20:35;71.53;;;31.10;;
4385;SDS011;2207;53.540;10.042;2024-02-26T01:23:02;64.03;;;27.93;;
4385;SDS011;2207;53.540;10.042;2024-02-26T01:25:29;65.17;;;27.67;;
4385;SDS011;2207;53.540;10.042;2024-02-26T01:27:56;62.50;;;26.53;;
4385;SDS011;2207;53.540;10.042;2024-02-26T01:30:24;75.60;;;29.67;;
4385;SDS011;2207;53.540;10.042;2024-02-26T01:32:51;78.03;;;30.27;;
4385;SDS011;2207;53.540;10.042;2024-02-26T01:35:18;75.97;;;29.60;;
4385;SDS011;2207;53.540;10.042;2024-02-26T01:37:45;70.47;;;27.90;;
4385;SDS011;2207;53.540;10.042;2024-02-26T01:40:12;50.47;;;23.97;;
4385;SDS011;2207;53.540;10.042;2024-02-26T01:42:43;57.20;;;27.07;;
4385;SDS011;2207;53.540;10.042;2024-02-26T01:45:11;75.67;;;28.10;;
4385;SDS011;2207;53.540;10.042;2024-02-26T01:47:48;61.07;;;27.13;;
4385;SDS011;2207;53.540;10.042;2024-02-26T01:50:16;57.30;;;25.23;;
4385;SDS011;2207;53.540;10.042;2024-02-26T01:52:44;61.90;;;28.17;;
4385;SDS011;2207;53.540;10.042;2024-02-26T01:55:12;62.77;;;26.83;;
4385;SDS011;2207;53.540;10.042;2024-02-26T01:57:40;59.93;;;25.43;;
4385;SDS011;2207;53.540;10.042;2024-02-26T02:00:09;49.33;;;24.10;;
4385;SDS011;2207;53.540;10.042;2024-02-26T02:02:36;55.00;;;25.10;;
4385;SDS011;2207;53.540;10.042;2024-02-26T02:05:08;56.37;;;23.83;;
4385;SDS011;2207;53.540;10.042;2024-02-26T02:07:36;44.57;;;22.30;;
4385;SDS011;2207;53.540;10.042;2024-02-26T02:10:04;42.37;;;23.27;;
4385;SDS011;2207;53.540;10.042;2024-02-26T02:12:32;44.20;;;22.13;;
4385;SDS011;2207;53.540;10.042;2024-02-26T02:14:59;41.83;;;21.97;;
4385;SDS011;2207;53.540;10.042;2024-02-26T02:17:26;42.77;;;21.70;;
4385;SDS011;2207;53.540;10.042;2024-02-26T02:19:54;42.27;;;21.53;;
4385;SDS011;2207;53.540;10.042;2024-02-26T02:22:22;39.03;;;20.20;;
4385;SDS011;2207;53.540;10.042;2024-02-26T02:24:49;45.27;;;21.73;;
4385;SDS011;2207;53.540;10.042;2024-02-26T02:27:17;40.27;;;21.80;;
4385;SDS011;2207;53.540;10.042;2024-02-26T02:29:45;38.67;;;20.63;;
4385;SDS011;2207;53.540;10.042;2024-02-26T02:32:13;41.27;;;22.50;;
4385;SDS011;2207;53.540;10.042;2024-02-26T02:34:40;45.77;;;21.57;;
4385;SDS011;2207;53.540;10.042;2024-02-26T02:37:07;50.67;;;22.53;;
4385;SDS011;2207;53.540;10.042;2024-02-26T02:39:36;49.90;;;23.37;;
4385;SDS011;2207;53.540;10.042;2024-02-26T02:42:03;43.47;;;22.57;;
4385;SDS011;2207;53.540;10.042;2024-02-26T02:44:30;48.53;;;24.23;;
4385;SDS011;2207;53.540;10.042;2024-02-26T02:46:57;51.73;;;24.43;;
4385;SDS011;2207;53.540;10.042;2024-02-26T02:49:23;57.47;;;26.70;;
4385;SDS011;2207;53.540;10.042;2024-02-26T02:51:50;51.77;;;25.83;;
4385;SDS011;2207;53.540;10.042;2024-02-26T02:54:18;53.10;;;23.93;;
4385;SDS011;2207;53.540;10.042;2024-02-26T02:56:46;54.73;;;24.93;;
4385;SDS011;2207;53.540;10.042;2024-02-26T02:59:13;56.37;;;24.37;;
4385;SDS011;2207;53.540;10.042;2024-02-26T03:01:40;53.00;;;25.80;;
4385;SDS011;2207;53.540;10.042;2024-02-26T03:04:07;50.67;;;25.80;;
4385;SDS011;2207;53.540;10.042;2024-02-26T03:06:33;58.43;;;26.13;;
4385;SDS011;2207;53.540;10.042;2024-02-26T03:09:00;59.40;;;25.43;;
4385;SDS011;2207;53.540;10.042;2024-02-26T03:11:28;58.27;;;26.37;;
4385;SDS011;2207;53.540;10.042;2024-02-26T03:13:56;62.87;;;27.73;;
4385;SDS011;2207;53.540;10.042;2024-02-26T03:16:23;55.67;;;26.80;;
4385;SDS011;2207;53.540;10.042;2024-02-26T03:18:49;66.77;;;27.63;;
4385;SDS011;2207;53.540;10.042;2024-02-26T03:21:16;61.20;;;27.80;;
4385;SDS011;2207;53.540;10.042;2024-02-26T03:23:44;59.00;;;25.57;;
4385;SDS011;2207;53.540;10.042;2024-02-26T03:26:11;64.97;;;26.57;;
4385;SDS011;2207;53.540;10.042;2024-02-26T03:28:39;62.37;;;26.73;;
4385;SDS011;2207;53.540;10.042;2024-02-26T03:31:07;62.37;;;27.73;;
4385;SDS011;2207;53.540;10.042;2024-02-26T03:33:35;63.73;;;26.30;;
4385;SDS011;2207;53.540;10.042;2024-02-26T03:36:02;61.80;;;26.50;;
4385;SDS011;2207;53.540;10.042;2024-02-26T03:38:30;60.70;;;26.13;;
4385;SDS011;2207;53.540;10.042;2024-02-26T03:40:57;61.60;;;26.90;;
4385;SDS011;2207;53.540;10.042;2024-02-26T03:43:23;70.67;;;28.03;;
4385;SDS011;2207;53.540;10.042;2024-02-26T03:45:50;62.03;;;26.27;;
4385;SDS011;2207;53.540;10.042;2024-02-26T03:48:19;62.53;;;25.73;;
4385;SDS011;2207;53.540;10.042;2024-02-26T03:50:46;63.43;;;26.17;;
4385;SDS011;2207;53.540;10.042;2024-02-26T03:53:13;71.43;;;26.70;;
4385;SDS011;2207;53.540;10.042;2024-02-26T03:55:40;58.30;;;25.43;;
4385;SDS011;2207;53.540;10.042;2024-02-26T03:58:07;60.43;;;25.93;;
4385;SDS011;2207;53.540;10.042;2024-02-26T04:00:34;56.67;;;25.60;;
4385;SDS011;2207;53.540;10.042;2024-02-26T04:03:01;68.17;;;26.87;;
4385;SDS011;2207;53.540;10.042;2024-02-26T04:05:30;62.70;;;25.27;;
4385;SDS011;2207;53.540;10.042;2024-02-26T04:07:56;56.97;;;25.27;;
4385;SDS011;2207;53.540;10.042;2024-02-26T04:10:23;59.70;;;25.47;;
4385;SDS011;2207;53.540;10.042;2024-02-26T04:12:50;64.20;;;26.93;;
4385;SDS011;2207;53.540;10.042;2024-02-26T04:15:17;61.13;;;26.37;;
4385;SDS011;2207;53.540;10.042;2024-02-26T04:17:44;65.10;;;26.33;;
4385;SDS011;2207;53.540;10.042;2024-02-26T04:20:13;66.17;;;26.30;;
4385;SDS011;2207;53.540;10.042;2024-02-26T04:22:43;68.23;;;26.37;;
4385;SDS011;2207;53.540;10.042;2024-02-26T04:25:10;67.00;;;26.47;;
4385;SDS011;2207;53.540;10.042;2024-02-26T04:27:37;65.10;;;27.40;;
4385;SDS011;2207;53.540;10.042;2024-02-26T04:30:04;69.10;;;25.63;;
4385;SDS011;2207;53.540;10.042;2024-02-26T04:32:32;61.47;;;25.00;;
4385;SDS011;2207;53.540;10.042;2024-02-26T04:34:59;69.00;;;25.17;;
4385;SDS011;2207;53.540;10.042;2024-02-26T04:37:26;73.37;;;26.47;;
4385;SDS011;2207;53.540;10.042;2024-02-26T04:39:57;65.17;;;25.53;;
4385;SDS011;2207;53.540;10.042;2024-02-26T04:42:25;63.60;;;25.17;;
4385;SDS011;2207;53.540;10.042;2024-02-26T04:44:52;72.57;;;27.30;;
4385;SDS011;2207;53.540;10.042;2024-02-26T04:47:19;63.57;;;25.10;;
4385;SDS011;2207;53.540;10.042;2024-02-26T04:49:47;64.80;;;25.00;;
4385;SDS011;2207;53.540;10.042;2024-02-26T04:52:14;67.30;;;25.07;;
4385;SDS011;2207;53.540;10.042;2024-02-26T04:54:41;65.77;;;26.60;;
4385;SDS011;2207;53.540;10.042;2024-02-26T04:57:09;76.73;;;30.10;;
4385;SDS011;2207;53.540;10.042;2024-02-26T04:59:36;71.83;;;27.33;;
4385;SDS011;2207;53.540;10.042;2024-02-26T05:02:03;64.23;;;25.77;;
4385;SDS011;2207;53.540;10.042;2024-02-26T05:04:30;72.37;;;26.63;;
4385;SDS011;2207;53.540;10.042;2024-02-26T05:06:57;71.43;;;27.53;;
4385;SDS011;2207;53.540;10.042;2024-02-26T05:09:24;68.23;;;26.17;;
4385;SDS011;2207;53.540;10.042;2024-02-26T05:11:50;72.63;;;26.03;;
4385;SDS011;2207;53.540;10.042;2024-02-26T05:14:19;65.27;;;26.07;;
4385;SDS011;2207;53.540;10.042;2024-02-26T05:16:46;64.83;;;25.33;;
4385;SDS011;2207;53.540;10.042;2024-02-26T05:19:13;63.83;;;24.80;;
4385;SDS011;2207;53.540;10.042;2024-02-26T05:21:40;58.57;;;23.90;;
4385;SDS011;2207;53.540;10.042;2024-02-26T05:24:07;60.77;;;24.70;;
4385;SDS011;2207;53.540;10.042;2024-02-26T05:26:34;71.87;;;28.07;;
4385;SDS011;2207;53.540;10.042;2024-02-26T05:29:01;71.40;;;28.30;;
4385;SDS011;2207;53.540;10.042;2024-02-26T05:31:29;75.23;;;29.13;;
4385;SDS011;2207;53.540;10.042;2024-02-26T05:33:56;84.80;;;31.70;;
4385;SDS011;2207;53.540;10.042;2024-02-26T05:36:23;72.83;;;29.80;;
4385;SDS011;2207;53.540;10.042;2024-02-26T05:38:51;75.67;;;28.53;;
4385;SDS011;2207;53.540;10.042;2024-02-26T05:41:17;79.67;;;30.57;;
4385;SDS011;2207;53.540;10.042;2024-02-26T05:43:48;73.60;;;29.50;;
4385;SDS011;2207;53.540;10.042;2024-02-26T05:46:16;69.60;;;28.60;;
4385;SDS011;2207;53.540;10.042;2024-02-26T05:48:44;75.73;;;28.27;;
4385;SDS011;2207;53.540;10.042;2024-02-26T05:51:13;76.87;;;28.63;;
4385;SDS011;2207;53.540;10.042;2024-02-26T05:53:40;72.37;;;29.10;;
4385;SDS011;2207;53.540;10.042;2024-02-26T05:56:07;71.80;;;28.40;;
4385;SDS011;2207;53.540;10.042;2024-02-26T05:58:34;72.27;;;29.50;;
4385;SDS011;2207;53.540;10.042;2024-02-26T06:01:01;83.43;;;30.97;;
4385;SDS011;2207;53.540;10.042;2024-02-26T06:03:28;76.00;;;31.37;;
4385;SDS011;2207;53.540;10.042;2024-02-26T06:05:56;83.67;;;29.83;;
4385;SDS011;2207;53.540;10.042;2024-02-26T06:08:23;80.67;;;31.00;;
4385;SDS011;2207;53.540;10.042;2024-02-26T06:10:50;88.70;;;32.87;;
4385;SDS011;2207;53.540;10.042;2024-02-26T06:13:17;92.60;;;32.77;;
4385;SDS011;2207;53.540;10.042;2024-02-26T06:15:44;97.17;;;32.57;;
4385;SDS011;2207;53.540;10.042;2024-02-26T06:18:10;97.17;;;32.77;;
4385;SDS011;2207;53.540;10.042;2024-02-26T06:20:37;101.67;;;32.30;;
4385;SDS011;2207;53.540;10.042;2024-02-26T06:23:05;100.03;;;31.73;;
4385;SDS011;2207;53.540;10.042;2024-02-26T06:25:33;91.77;;;32.30;;
4385;SDS011;2207;53.540;10.042;2024-02-26T06:27:59;97.80;;;33.10;;
4385;SDS011;2207;53.540;10.042;2024-02-26T06:30:26;93.47;;;32.63;;
4385;SDS011;2207;53.540;10.042;2024-02-26T06:32:53;98.10;;;31.93;;
4385;SDS011;2207;53.540;10.042;2024-02-26T06:35:20;103.30;;;34.67;;
4385;SDS011;2207;53.540;10.042;2024-02-26T06:37:47;104.80;;;33.97;;
4385;SDS011;2207;53.540;10.042;2024-02-26T06:40:17;106.53;;;35.77;;
4385;SDS011;2207;53.540;10.042;2024-02-26T06:42:44;101.13;;;34.47;;
4385;SDS011;2207;53.540;10.042;2024-02-26T06:45:11;116.93;;;35.67;;
4385;SDS011;2207;53.540;10.042;2024-02-26T06:47:38;112.57;;;36.27;;
4385;SDS011;2207;53.540;10.042;2024-02-26T06:50:05;120.20;;;38.10;;
4385;SDS011;2207;53.540;10.042;2024-02-26T06:52:32;118.83;;;36.17;;
4385;SDS011;2207;53.540;10.042;2024-02-26T06:54:59;121.83;;;35.67;;
4385;SDS011;2207;53.540;10.042;2024-02-26T06:57:35;120.07;;;35.97;;
4385;SDS011;2207;53.540;10.042;2024-02-26T07:00:02;126.33;;;37.93;;
4385;SDS011;2207;53.540;10.042;2024-02-26T07:02:30;121.83;;;36.87;;
4385;SDS011;2207;53.540;10.042;2024-02-26T07:04:56;122.23;;;37.53;;
4385;SDS011;2207;53.540;10.042;2024-02-26T07:07:23;131.63;;;39.30;;
4385;SDS011;2207;53.540;10.042;2024-02-26T07:09:50;144.23;;;41.03;;
4385;SDS011;2207;53.540;10.042;2024-02-26T07:12:17;136.60;;;40.37;;
4385;SDS011;2207;53.540;10.042;2024-02-26T07:14:46;137.90;;;41.83;;
4385;SDS011;2207;53.540;10.042;2024-02-26T07:17:12;130.80;;;39.80;;
4385;SDS011;2207;53.540;10.042;2024-02-26T07:19:41;144.03;;;41.10;;
4385;SDS011;2207;53.540;10.042;2024-02-26T07:22:08;131.83;;;40.97;;
4385;SDS011;2207;53.540;10.042;2024-02-26T07:24:35;132.67;;;40.23;;
4385;SDS011;2207;53.540;10.042;2024-02-26T07:27:02;137.27;;;41.83;;
4385;SDS011;2207;53.540;10.042;2024-02-26T07:29:29;139.27;;;42.37;;
4385;SDS011;2207;53.540;10.042;2024-02-26T07:31:57;135.10;;;42.37;;
4385;SDS011;2207;53.540;10.042;2024-02-26T07:34:24;123.80;;;42.37;;
4385;SDS011;2207;53.540;10.042;2024-02-26T07:36:54;138.33;;;42.53;;
4385;SDS011;2207;53.540;10.042;2024-02-26T07:39:21;123.33;;;38.30;;
4385;SDS011;2207;53.540;10.042;2024-02-26T07:41:47;120.80;;;38.60;;
4385;SDS011;2207;53.540;10.042;2024-02-26T07:44:16;120.13;;;39.27;;
4385;SDS011;2207;53.540;10.042;2024-02-26T07:46:43;103.77;;;37.93;;
4385;SDS011;2207;53.540;10.042;2024-02-26T07:49:11;110.57;;;37.90;;
4385;SDS011;2207;53.540;10.042;2024-02-26T07:51:46;112.30;;;36.40;;
4385;SDS011;2207;53.540;10.042;2024-02-26T07:54:13;109.93;;;37.47;;
4385;SDS011;2207;53.540;10.042;2024-02-26T07:56:41;102.50;;;34.93;;
4385;SDS011;2207;53.540;10.042;2024-02-26T07:59:08;101.23;;;37.80;;
4385;SDS011;2207;53.540;10.042;2024-02-26T08:01:35;101.77;;;34.30;;
4385;SDS011;2207;53.540;10.042;2024-02-26T08:04:04;94.47;;;34.93;;
4385;SDS011;2207;53.540;10.042;2024-02-26T08:06:32;96.20;;;35.33;;
4385;SDS011;2207;53.540;10.042;2024-02-26T08:08:59;92.17;;;33.33;;
4385;SDS011;2207;53.540;10.042;2024-02-26T08:11:26;91.07;;;34.43;;
4385;SDS011;2207;53.540;10.042;2024-02-26T08:13:54;85.90;;;32.97;;
4385;SDS011;2207;53.540;10.042;2024-02-26T08:16:20;89.57;;;33.67;;
4385;SDS011;2207;53.540;10.042;2024-02-26T08:18:47;87.27;;;32.80;;
4385;SDS011;2207;53.540;10.042;2024-02-26T08:21:14;67.97;;;30.67;;
4385;SDS011;2207;53.540;10.042;2024-02-26T08:23:43;71.73;;;31.57;;
4385;SDS011;2207;53.540;10.042;2024-02-26T08:26:10;67.83;;;31.10;;
4385;SDS011;2207;53.540;10.042;2024-02-26T08:28:37;61.53;;;29.97;;
4385;SDS011;2207;53.540;10.042;2024-02-26T08:31:04;62.77;;;30.40;;
4385;SDS011;2207;53.540;10.042;2024-02-26T08:33:34;50.80;;;27.87;;
4385;SDS011;2207;53.540;10.042;2024-02-26T08:36:03;52.10;;;27.47;;
4385;SDS011;2207;53.540;10.042;2024-02-26T08:38:31;48.17;;;25.63;;
4385;SDS011;2207;53.540;10.042;2024-02-26T08:41:01;44.93;;;25.93;;
4385;SDS011;2207;53.540;10.042;2024-02-26T08:43:28;44.47;;;26.23;;
4385;SDS011;2207;53.540;10.042;2024-02-26T08:45:56;43.10;;;25.10;;
4385;SDS011;2207;53.540;10.042;2024-02-26T08:48:22;39.73;;;24.93;;
4385;SDS011;2207;53.540;10.042;2024-02-26T08:50:50;38.50;;;24.03;;
4385;SDS011;2207;53.540;10.042;2024-02-26T08:53:17;33.53;;;21.93;;
4385;SDS011;2207;53.540;10.042;2024-02-26T08:55:44;30.87;;;22.20;;
4385;SDS011;2207;53.540;10.042;2024-02-26T08:58:12;27.50;;;20.03;;
4385;SDS011;2207;53.540;10.042;2024-02-26T09:00:39;26.77;;;19.63;;
4385;SDS011;2207;53.540;10.042;2024-02-26T09:03:06;25.90;;;18.27;;
4385;SDS011;2207;53.540;10.042;2024-02-26T09:05:33;22.37;;;17.30;;
4385;SDS011;2207;53.540;10.042;2024-02-26T09:08:00;20.57;;;15.50;;
4385;SDS011;2207;53.540;10.042;2024-02-26T09:10:27;17.37;;;14.40;;
4385;SDS011;2207;53.540;10.042;2024-02-26T09:12:54;16.53;;;13.60;;
4385;SDS011;2207;53.540;10.042;2024-02-26T09:15:23;15.73;;;13.20;;
4385;SDS011;2207;53.540;10.042;2024-02-26T09:17:49;16.30;;;12.90;;
4385;SDS011;2207;53.540;10.042;2024-02-26T09:20:17;17.73;;;12.67;;
4385;SDS011;2207;53.540;10.042;2024-02-26T09:22:45;14.03;;;12.03;;
4385;SDS011;2207;53.540;10.042;2024-02-26T09:25:12;12.90;;;10.80;;
4385;SDS011;2207;53.540;10.042;2024-02-26T09:27:40;14.17;;;11.30;;
4385;SDS011;2207;53.540;10.042;2024-02-26T09:30:07;12.73;;;10.67;;
4385;SDS011;2207;53.540;10.042;2024-02-26T09:32:37;11.57;;;9.80;;
4385;SDS011;2207;53.540;10.042;2024-02-26T09:35:04;12.10;;;10.03;;
4385;SDS011;2207;53.540;10.042;2024-02-26T09:37:31;11.47;;;9.00;;
4385;SDS011;2207;53.540;10.042;2024-02-26T09:39:58;11.37;;;9.23;;
4385;SDS011;2207;53.540;10.042;2024-02-26T09:42:25;9.40;;;8.40;;
4385;SDS011;2207;53.540;10.042;2024-02-26T09:44:55;9.47;;;8.17;;
4385;SDS011;2207;53.540;10.042;2024-02-26T09:47:26;10.00;;;7.90;;
4385;SDS011;2207;53.540;10.042;2024-02-26T09:49:57;9.93;;;7.77;;
4385;SDS011;2207;53.540;10.042;2024-02-26T09:52:25;9.60;;;8.20;;
4385;SDS011;2207;53.540;10.042;2024-02-26T09:54:53;10.17;;;7.97;;
4385;SDS011;2207;53.540;10.042;2024-02-26T09:57:21;10.60;;;8.33;;
4385;SDS011;2207;53.540;10.042;2024-02-26T09:59:49;9.93;;;8.03;;
4385;SDS011;2207;53.540;10.042;2024-02-26T10:02:19;11.20;;;8.33;;
4385;SDS011;2207;53.540;10.042;2024-02-26T10:04:48;9.53;;;8.10;;
4385;SDS011;2207;53.540;10.042;2024-02-26T10:07:17;11.40;;;7.80;;
4385;SDS011;2207;53.540;10.042;2024-02-26T10:09:44;9.40;;;7.70;;
4385;SDS011;2207;53.540;10.042;2024-02-26T10:12:11;10.43;;;8.30;;
4385;SDS011;2207;53.540;10.042;2024-02-26T10:14:39;11.10;;;8.90;;
4385;SDS011;2207;53.540;10.042;2024-02-26T10:17:06;11.87;;;8.87;;
4385;SDS011;2207;53.540;10.042;2024-02-26T10:19:34;11.00;;;8.83;;
4385;SDS011;2207;53.540;10.042;2024-02-26T10:22:01;12.40;;;10.00;;
4385;SDS011;2207;53.540;10.042;2024-02-26T10:24:31;18.00;;;10.07;;
4385;SDS011;2207;53.540;10.042;2024-02-26T10:26:59;11.47;;;9.23;;
4385;SDS011;2207;53.540;10.042;2024-02-26T10:29:26;12.30;;;10.20;;
4385;SDS011;2207;53.540;10.042;2024-02-26T10:31:53;12.20;;;9.77;;
4385;SDS011;2207;53.540;10.042;2024-02-26T10:34:20;14.43;;;10.37;;
4385;SDS011;2207;53.540;10.042;2024-02-26T10:36:48;13.70;;;10.07;;
4385;SDS011;2207;53.540;10.042;2024-02-26T10:39:16;14.73;;;10.33;;
4385;SDS011;2207;53.540;10.042;2024-02-26T10:41:44;13.03;;;10.10;;
4385;SDS011;2207;53.540;10.042;2024-02-26T10:44:11;15.30;;;10.37;;
4385;SDS011;2207;53.540;10.042;2024-02-26T10:46:40;13.43;;;10.80;;
4385;SDS011;2207;53.540;10.042;2024-02-26T10:49:12;14.27;;;10.10;;
4385;SDS011;2207;53.540;10.042;2024-02-26T10:51:40;15.77;;;11.13;;
4385;SDS011;2207;53.540;10.042;2024-02-26T10:54:12;15.03;;;10.60;;
4385;SDS011;2207;53.540;10.042;2024-02-26T10:56:41;12.87;;;10.30;;
4385;SDS011;2207;53.540;10.042;2024-02-26T10:59:12;14.73;;;10.60;;
4385;SDS011;2207;53.540;10.042;2024-02-26T11:01:40;13.50;;;11.07;;
4385;SDS011;2207;53.540;10.042;2024-02-26T11:04:11;12.77;;;10.23;;
4385;SDS011;2207;53.540;10.042;2024-02-26T11:06:39;16.90;;;12.07;;
4385;SDS011;2207;53.540;10.042;2024-02-26T11:09:06;14.23;;;10.80;;
4385;SDS011;2207;53.540;10.042;2024-02-26T11:11:38;14.60;;;11.23;;
4385;SDS011;2207;53.540;10.042;2024-02-26T11:14:08;18.43;;;11.60;;
4385;SDS011;2207;53.540;10.042;2024-02-26T11:16:35;17.63;;;12.40;;
4385;SDS011;2207;53.540;10.042;2024-02-26T11:19:05;14.83;;;12.07;;
4385;SDS011;2207;53.540;10.042;2024-02-26T11:21:35;15.13;;;12.03;;
4385;SDS011;2207;53.540;10.042;2024-02-26T11:24:06;15.07;;;11.77;;
4385;SDS011;2207;53.540;10.042;2024-02-26T11:26:36;18.13;;;13.03;;
4385;SDS011;2207;53.540;10.042;2024-02-26T11:29:11;15.53;;;12.03;;
4385;SDS011;2207;53.540;10.042;2024-02-26T11:31:40;16.23;;;12.13;;
4385;SDS011;2207;53.540;10.042;2024-02-26T11:34:07;18.10;;;12.83;;
4385;SDS011;2207;53.540;10.042;2024-02-26T11:36:35;17.63;;;12.43;;
4385;SDS011;2207;53.540;10.042;2024-02-26T11:39:04;16.53;;;12.07;;
4385;SDS011;2207;53.540;10.042;2024-02-26T11:41:31;15.03;;;11.87;;
4385;SDS011;2207;53.540;10.042;2024-02-26T11:43:59;17.63;;;12.40;;
4385;SDS011;2207;53.540;10.042;2024-02-26T11:46:29;17.73;;;12.40;;
4385;SDS011;2207;53.540;10.042;2024-02-26T11:48:58;17.27;;;12.37;;
4385;SDS011;2207;53.540;10.042;2024-02-26T11:51:26;14.90;;;11.77;;
4385;SDS011;2207;53.540;10.042;2024-02-26T11:53:58;17.10;;;12.33;;
4385;SDS011;2207;53.540;10.042;2024-02-26T11:56:25;13.27;;;11.10;;
4385;SDS011;2207;53.540;10.042;2024-02-26T11:58:57;13.17;;;11.03;;
4385;SDS011;2207;53.540;10.042;2024-02-26T12:01:42;15.37;;;11.00;;
4385;SDS011;2207;53.540;10.042;2024-02-26T12:04:14;14.30;;;11.03;;
4385;SDS011;2207;53.540;10.042;2024-02-26T12:06:44;12.17;;;9.97;;
4385;SDS011;2207;53.540;10.042;2024-02-26T12:09:13;15.03;;;11.53;;
4385;SDS011;2207;53.540;10.042;2024-02-26T12:11:55;12.27;;;10.23;;
4385;SDS011;2207;53.540;10.042;2024-02-26T12:14:24;16.30;;;11.40;;
4385;SDS011;2207;53.540;10.042;2024-02-26T12:16:53;12.67;;;9.83;;
4385;SDS011;2207;53.540;10.042;2024-02-26T12:19:23;12.43;;;10.03;;
4385;SDS011;2207;53.540;10.042;2024-02-26T12:21:51;12.17;;;10.80;;
4385;SDS011;2207;53.540;10.042;2024-02-26T12:24:18;14.67;;;10.87;;
4385;SDS011;2207;53.540;10.042;2024-02-26T12:26:46;15.00;;;11.07;;
4385;SDS011;2207;53.540;10.042;2024-02-26T12:29:16;13.03;;;10.33;;
4385;SDS011;2207;53.540;10.042;2024-02-26T12:31:43;14.07;;;10.53;;
4385;SDS011;2207;53.540;10.042;2024-02-26T12:34:12;12.73;;;10.50;;
4385;SDS011;2207;53.540;10.042;2024-02-26T12:36:39;13.27;;;10.17;;
4385;SDS011;2207;53.540;10.042;2024-02-26T12:39:05;12.73;;;9.63;;
4385;SDS011;2207;53.540;10.042;2024-02-26T12:41:34;10.80;;;9.37;;
4385;SDS011;2207;53.540;10.042;2024-02-26T12:44:01;10.87;;;9.27;;
4385;SDS011;2207;53.540;10.042;2024-02-26T12:46:29;12.40;;;9.60;;
4385;SDS011;2207;53.540;10.042;2024-02-26T12:48:56;13.70;;;10.00;;
4385;SDS011;2207;53.540;10.042;2024-02-26T12:51:25;12.30;;;10.47;;
4385;SDS011;2207;53.540;10.042;2024-02-26T12:53:53;13.03;;;11.03;;
4385;SDS011;2207;53.540;10.042;2024-02-26T12:56:22;14.87;;;11.53;;
4385;SDS011;2207;53.540;10.042;2024-02-26T12:58:49;16.60;;;12.37;;
4385;SDS011;2207;53.540;10.042;2024-02-26T13:01:18;14.50;;;11.90;;
4385;SDS011;2207;53.540;10.042;2024-02-26T13:03:47;15.33;;;11.80;;
4385;SDS011;2207;53.540;10.042;2024-02-26T13:06:15;15.13;;;11.40;;
4385;SDS011;2207;53.540;10.042;2024-02-26T13:08:44;15.03;;;11.57;;
4385;SDS011;2207;53.540;10.042;2024-02-26T13:11:11;13.37;;;10.97;;
4385;SDS011;2207;53.540;10.042;2024-02-26T13:13:38;13.97;;;11.40;;
4385;SDS011;2207;53.540;10.042;2024-02-26T13:16:06;15.70;;;11.33;;
4385;SDS011;2207;53.540;10.042;2024-02-26T13:18:34;13.07;;;10.97;;
4385;SDS011;2207;53.540;10.042;2024-02-26T13:21:11;13.37;;;11.57;;
4385;SDS011;2207;53.540;10.042;2024-02-26T13:23:40;11.30;;;10.10;;
4385;SDS011;2207;53.540;10.042;2024-02-26T13:26:11;12.23;;;9.93;;
4385;SDS011;2207;53.540;10.042;2024-02-26T13:28:38;11.67;;;10.40;;
4385;SDS011;2207;53.540;10.042;2024-02-26T13:31:05;11.10;;;10.00;;
4385;SDS011;2207;53.540;10.042;2024-02-26T13:33:33;11.20;;;9.87;;
4385;SDS011;2207;53.540;10.042;2024-02-26T13:36:00;11.10;;;9.27;;
4385;SDS011;2207;53.540;10.042;2024-02-26T13:38:27;12.63;;;9.88;;
4385;SDS011;2207;53.540;10.042;2024-02-26T13:40:54;11.85;;;10.30;;
4385;SDS011;2207;53.540;10.042;2024-02-26T13:43:21;12.25;;;10.95;;
4385;SDS011;2207;53.540;10.042;2024-02-26T13:45:48;11.50;;;10.30;;
4385;SDS011;2207;53.540;10.042;2024-02-26T13:48:15;11.15;;;10.00;;
4385;SDS011;2207;53.540;10.042;2024-02-26T13:50:42;15.15;;;10.73;;
4385;SDS011;2207;53.540;10.042;2024-02-26T13:53:10;13.35;;;9.95;;
4385;SDS011;2207;53.540;10.042;2024-02-26T13:55:37;11.33;;;9.97;;
4385;SDS011;2207;53.540;10.042;2024-02-26T13:58:05;10.83;;;9.63;;
4385;SDS011;2207;53.540;10.042;2024-02-26T14:00:33;11.13;;;9.83;;
4385;SDS011;2207;53.540;10.042;2024-02-26T14:03:00;11.90;;;10.33;;
4385;SDS011;2207;53.540;10.042;2024-02-26T14:05:27;11.17;;;9.97;;
4385;SDS011;2207;53.540;10.042;2024-02-26T14:07:55;15.33;;;10.30;;
4385;SDS011;2207;53.540;10.042;2024-02-26T14:10:21;12.07;;;9.53;;
4385;SDS011;2207;53.540;10.042;2024-02-26T14:12:48;10.37;;;9.27;;
4385;SDS011;2207;53.540;10.042;2024-02-26T14:15:15;11.20;;;9.70;;
4385;SDS011;2207;53.540;10.042;2024-02-26T14:17:47;10.40;;;9.37;;
4385;SDS011;2207;53.540;10.042;2024-02-26T14:20:19;11.10;;;9.90;;
4385;SDS011;2207;53.540;10.042;2024-02-26T14:22:46;14.07;;;10.33;;
4385;SDS011;2207;53.540;10.042;2024-02-26T14:25:13;12.70;;;10.10;;
4385;SDS011;2207;53.540;10.042;2024-02-26T14:27:40;13.17;;;10.80;;
4385;SDS011;2207;53.540;10.042;2024-02-26T14:30:07;13.03;;;10.23;;
4385;SDS011;2207;53.540;10.042;2024-02-26T14:32:34;12.47;;;10.23;;
4385;SDS011;2207;53.540;10.042;2024-02-26T14:35:04;12.27;;;10.03;;
4385;SDS011;2207;53.540;10.042;2024-02-26T14:37:33;14.03;;;10.60;;
4385;SDS011;2207;53.540;10.042;2024-02-26T14:39:59;12.43;;;10.73;;